createdAt,value
2023-03-25T00:00:14.303Z,92.32
2023-03-25T00:01:18.550Z,92.36
2023-03-25T00:02:22.853Z,92.35
2023-03-25T00:03:27.086Z,92.42
2023-03-25T00:04:31.296Z,92.42
2023-03-25T00:05:35.545Z,92.40
2023-03-25T00:06:39.792Z,92.42
2023-03-25T00:07:44.032Z,92.47
2023-03-25T00:08:48.347Z,92.47
2023-03-25T00:09:52.555Z,92.47
2023-03-25T00:11:10.889Z,92.52
2023-03-25T00:12:14.202Z,92.57
2023-03-25T00:13:18.330Z,92.59
2023-03-25T00:14:22.624Z,92.62
2023-03-25T00:15:26.828Z,92.69
2023-03-25T00:16:31.094Z,92.73
2023-03-25T00:17:38.464Z,92.79
2023-03-25T00:18:41.684Z,92.84
2023-03-25T00:19:45.923Z,92.89
2023-03-25T00:20:50.140Z,92.93
2023-03-25T00:21:54.398Z,92.93
2023-03-25T00:22:58.639Z,92.96
2023-03-25T00:24:02.937Z,92.93
2023-03-25T00:25:07.247Z,92.97
2023-03-25T00:26:11.402Z,93.11
2023-03-25T00:27:15.641Z,93.03
2023-03-25T00:28:19.866Z,93.09
2023-03-25T00:29:24.177Z,93.09
2023-03-25T00:30:28.505Z,93.09
2023-03-25T00:31:32.693Z,93.12
2023-03-25T00:32:36.909Z,93.17
2023-03-25T00:33:41.166Z,93.07
2023-03-25T00:34:45.351Z,93.08
2023-03-25T00:35:49.983Z,93.05
2023-03-25T00:36:53.891Z,93.05
2023-03-25T00:37:58.064Z,93.09
2023-03-25T00:39:02.286Z,93.16
2023-03-25T00:40:06.563Z,93.14
2023-03-25T00:41:10.758Z,93.18
2023-03-25T00:42:15.068Z,93.25
2023-03-25T00:43:19.264Z,93.26
2023-03-25T00:44:23.520Z,93.27
2023-03-25T00:45:27.784Z,93.30
2023-03-25T00:46:32.195Z,93.35
2023-03-25T00:47:36.264Z,93.36
2023-03-25T00:48:40.455Z,93.42
2023-03-25T00:49:44.704Z,93.45
2023-03-25T00:50:49.059Z,93.47
2023-03-25T00:51:53.945Z,93.42
2023-03-25T00:52:57.418Z,93.45
2023-03-25T00:54:01.618Z,93.47
2023-03-25T00:55:05.968Z,93.50
2023-03-25T00:56:10.272Z,93.50
2023-03-25T00:57:14.520Z,93.50
2023-03-25T00:58:18.753Z,93.55
2023-03-25T00:59:22.963Z,93.57
2023-03-25T01:00:27.200Z,93.56
2023-03-25T01:01:31.481Z,93.59
2023-03-25T01:02:35.805Z,93.70
2023-03-25T01:03:40.080Z,93.80
2023-03-25T01:04:44.265Z,93.84
2023-03-25T01:05:48.709Z,93.92
2023-03-25T01:06:52.724Z,94.14
2023-03-25T01:07:56.967Z,94.20
2023-03-25T01:09:01.226Z,94.23
2023-03-25T01:10:19.482Z,94.25
2023-03-25T01:11:22.681Z,94.29
2023-03-25T01:12:26.840Z,94.34
2023-03-25T01:13:31.137Z,94.33
2023-03-25T01:14:35.374Z,94.33
2023-03-25T01:15:39.561Z,94.39
2023-03-25T01:16:43.873Z,94.40
2023-03-25T01:17:48.092Z,94.52
2023-03-25T01:18:52.258Z,94.56
2023-03-25T01:19:56.476Z,94.55
2023-03-25T01:21:00.706Z,94.59
2023-03-25T01:22:05.012Z,94.69
2023-03-25T01:23:09.237Z,94.70
2023-03-25T01:24:13.459Z,94.78
2023-03-25T01:25:17.764Z,94.84
2023-03-25T01:26:22.052Z,94.88
2023-03-25T01:27:26.236Z,94.95
2023-03-25T01:28:30.513Z,94.94
2023-03-25T01:29:34.777Z,94.99
2023-03-25T01:30:38.982Z,95.02
2023-03-25T01:31:43.335Z,95.05
2023-03-25T01:32:47.490Z,95.05
2023-03-25T01:33:51.693Z,95.13
2023-03-25T01:34:56.014Z,95.17
2023-03-25T01:36:00.261Z,95.20
2023-03-25T01:37:04.432Z,95.28
2023-03-25T01:38:08.653Z,95.33
2023-03-25T01:39:13.021Z,95.36
2023-03-25T01:40:23.203Z,95.36
2023-03-25T01:41:29.213Z,95.48
2023-03-25T01:42:30.257Z,95.53
2023-03-25T01:43:34.520Z,95.63
2023-03-25T01:44:38.733Z,95.65
2023-03-25T01:45:42.994Z,95.70
2023-03-25T01:46:47.293Z,95.75
2023-03-25T01:47:51.382Z,95.80
2023-03-25T01:48:55.687Z,95.81
2023-03-25T01:49:59.897Z,95.86
2023-03-25T01:51:04.098Z,95.93
2023-03-25T01:52:08.411Z,95.97
2023-03-25T01:53:12.640Z,95.92
2023-03-25T01:54:16.873Z,95.92
2023-03-25T01:55:21.073Z,95.95
2023-03-25T01:56:25.313Z,96.11
2023-03-25T01:57:29.625Z,96.12
2023-03-25T01:58:33.938Z,96.11
2023-03-25T01:59:38.223Z,96.08
2023-03-25T02:00:42.376Z,96.06
2023-03-25T02:01:46.703Z,96.07
2023-03-25T02:02:57.038Z,96.12
2023-03-25T02:04:14.068Z,96.18
2023-03-25T02:05:17.120Z,96.15
2023-03-25T02:06:21.268Z,96.19
2023-03-25T02:07:28.600Z,96.25
2023-03-25T02:08:31.856Z,96.21
2023-03-25T02:09:36.087Z,96.19
2023-03-25T02:10:40.341Z,96.16
2023-03-25T02:11:44.561Z,96.16
2023-03-25T02:12:48.766Z,96.12
2023-03-25T02:13:53.041Z,96.12
2023-03-25T02:14:57.273Z,96.17
2023-03-25T02:16:01.657Z,96.24
2023-03-25T02:17:05.792Z,96.29
2023-03-25T02:18:10.015Z,96.34
2023-03-25T02:19:14.263Z,96.33
2023-03-25T02:20:18.495Z,96.41
2023-03-25T02:21:22.705Z,96.53
2023-03-25T02:22:26.948Z,96.66
2023-03-25T02:23:31.216Z,96.74
2023-03-25T02:24:35.563Z,96.83
2023-03-25T02:25:39.748Z,96.91
2023-03-25T02:26:43.937Z,96.97
2023-03-25T02:27:48.148Z,97.06
2023-03-25T02:28:52.405Z,97.13
2023-03-25T02:29:56.707Z,97.16
2023-03-25T02:31:00.941Z,97.16
2023-03-25T02:32:05.268Z,97.16
2023-03-25T02:33:09.474Z,97.16
2023-03-25T02:34:13.763Z,97.17
2023-03-25T02:35:17.967Z,97.17
2023-03-25T02:36:22.203Z,97.19
2023-03-25T02:37:26.470Z,97.23
2023-03-25T02:38:30.687Z,97.25
2023-03-25T02:39:34.906Z,97.26
2023-03-25T02:40:39.149Z,97.24
2023-03-25T02:41:43.374Z,97.24
2023-03-25T02:42:47.560Z,97.27
2023-03-25T02:43:51.791Z,97.27
2023-03-25T02:44:56.019Z,97.27
2023-03-25T02:46:00.312Z,97.25
2023-03-25T02:47:04.557Z,97.25
2023-03-25T02:48:08.772Z,97.26
2023-03-25T02:49:13.089Z,97.29
2023-03-25T02:50:17.263Z,97.30
2023-03-25T02:51:21.627Z,97.31
2023-03-25T02:52:25.888Z,97.32
2023-03-25T02:53:30.077Z,97.30
2023-03-25T02:54:34.383Z,97.33
2023-03-25T02:55:38.584Z,97.36
2023-03-25T02:56:42.874Z,97.39
2023-03-25T02:57:47.085Z,97.45
2023-03-25T02:58:51.258Z,97.42
2023-03-25T02:59:55.552Z,97.41
2023-03-25T03:00:59.847Z,97.40
2023-03-25T03:02:04.128Z,97.39
2023-03-25T03:03:08.402Z,97.38
2023-03-25T03:04:12.707Z,97.40
2023-03-25T03:05:16.829Z,97.41
2023-03-25T03:06:21.097Z,97.44
2023-03-25T03:07:25.396Z,97.45
2023-03-25T03:08:29.614Z,97.44
2023-03-25T03:09:33.940Z,97.43
2023-03-25T03:10:38.234Z,97.45
2023-03-25T03:11:42.440Z,97.52
2023-03-25T03:12:46.681Z,97.50
2023-03-25T03:13:50.907Z,97.50
2023-03-25T03:14:55.223Z,97.50
2023-03-25T03:15:59.393Z,97.56
2023-03-25T03:17:03.800Z,97.56
2023-03-25T03:18:08.016Z,97.53
2023-03-25T03:19:12.033Z,97.53
2023-03-25T03:20:16.399Z,97.54
2023-03-25T03:21:20.573Z,97.59
2023-03-25T03:22:24.831Z,97.57
2023-03-25T03:23:29.114Z,97.56
2023-03-25T03:24:33.421Z,97.56
2023-03-25T03:25:37.614Z,97.53
2023-03-25T03:26:41.893Z,97.60
2023-03-25T03:27:46.084Z,97.61
2023-03-25T03:28:50.387Z,97.61
2023-03-25T03:29:54.597Z,97.57
2023-03-25T03:30:59.719Z,97.55
2023-03-25T03:32:06.143Z,97.57
2023-03-25T03:33:10.915Z,97.55
2023-03-25T03:34:14.127Z,97.57
2023-03-25T03:35:18.464Z,97.55
2023-03-25T03:36:22.547Z,97.58
2023-03-25T03:37:26.902Z,97.60
2023-03-25T03:38:31.216Z,97.60
2023-03-25T03:39:38.451Z,97.61
2023-03-25T03:40:41.832Z,97.73
2023-03-25T03:41:45.976Z,97.84
2023-03-25T03:42:50.206Z,97.90
2023-03-25T03:43:54.432Z,97.93
2023-03-25T03:44:58.860Z,97.98
2023-03-25T03:46:03.064Z,97.94
2023-03-25T03:47:07.373Z,97.89
2023-03-25T03:48:11.614Z,97.90
2023-03-25T03:49:29.963Z,97.90
2023-03-25T03:50:33.193Z,97.92
2023-03-25T03:51:37.317Z,97.95
2023-03-25T03:52:41.533Z,97.96
2023-03-25T03:53:45.857Z,98.01
2023-03-25T03:54:50.044Z,97.98
2023-03-25T03:55:54.338Z,97.98
2023-03-25T03:56:58.596Z,97.97
2023-03-25T03:58:02.773Z,97.96
2023-03-25T03:59:06.999Z,97.98
2023-03-25T04:00:11.239Z,97.97
2023-03-25T04:01:15.516Z,97.96
2023-03-25T04:02:19.755Z,97.98
2023-03-25T04:03:24.053Z,98.01
2023-03-25T04:04:28.242Z,98.03
2023-03-25T04:05:32.463Z,98.04
2023-03-25T04:06:36.840Z,98.07
2023-03-25T04:07:40.980Z,98.07
2023-03-25T04:08:45.211Z,98.09
2023-03-25T04:09:49.367Z,98.12
2023-03-25T04:10:53.816Z,98.21
2023-03-25T04:11:58.003Z,98.14
2023-03-25T04:13:02.306Z,98.21
2023-03-25T04:14:06.471Z,98.21
2023-03-25T04:15:10.676Z,98.15
2023-03-25T04:16:15.004Z,98.23
2023-03-25T04:17:19.276Z,98.22
2023-03-25T04:18:23.536Z,98.22
2023-03-25T04:19:27.711Z,98.24
2023-03-25T04:20:31.990Z,98.24
2023-03-25T04:21:36.187Z,98.24
2023-03-25T04:22:40.559Z,98.24
2023-03-25T04:23:44.746Z,98.25
2023-03-25T04:24:49.071Z,98.27
2023-03-25T04:25:53.681Z,98.25
2023-03-25T04:26:57.569Z,98.25
2023-03-25T04:28:01.805Z,98.22
2023-03-25T04:29:06.037Z,98.18
2023-03-25T04:30:10.243Z,98.17
2023-03-25T04:31:14.543Z,98.17
2023-03-25T04:32:18.722Z,98.17
2023-03-25T04:33:22.983Z,98.15
2023-03-25T04:34:27.243Z,98.17
2023-03-25T04:35:31.471Z,98.20
2023-03-25T04:36:35.686Z,98.19
2023-03-25T04:37:39.950Z,98.21
2023-03-25T04:38:44.293Z,98.23
2023-03-25T04:39:48.415Z,98.23
2023-03-25T04:40:52.792Z,98.25
2023-03-25T04:41:57.064Z,98.23
2023-03-25T04:43:01.270Z,98.22
2023-03-25T04:44:05.520Z,98.23
2023-03-25T04:45:09.897Z,98.23
2023-03-25T04:46:14.125Z,98.25
2023-03-25T04:47:18.336Z,98.26
2023-03-25T04:48:22.519Z,98.23
2023-03-25T04:49:26.770Z,98.21
2023-03-25T04:50:31.110Z,98.22
2023-03-25T04:51:38.305Z,98.25
2023-03-25T04:52:41.607Z,98.23
2023-03-25T04:53:45.926Z,98.24
2023-03-25T04:54:50.135Z,98.22
2023-03-25T04:55:54.357Z,98.21
2023-03-25T04:56:58.594Z,98.21
2023-03-25T04:58:02.680Z,98.23
2023-03-25T04:59:06.992Z,98.24
2023-03-25T05:00:11.347Z,98.25
2023-03-25T05:01:15.652Z,98.27
2023-03-25T05:02:19.800Z,98.20
2023-03-25T05:03:24.018Z,98.25
2023-03-25T05:04:28.349Z,98.24
2023-03-25T05:05:32.498Z,98.26
2023-03-25T05:06:36.740Z,98.31
2023-03-25T05:07:41.086Z,98.32
2023-03-25T05:08:45.279Z,98.32
2023-03-25T05:09:49.550Z,98.32
2023-03-25T05:10:53.852Z,98.33
2023-03-25T05:11:57.896Z,98.33
2023-03-25T05:13:02.206Z,98.38
2023-03-25T05:14:06.445Z,98.36
2023-03-25T05:15:10.729Z,98.37
2023-03-25T05:16:15.058Z,98.37
2023-03-25T05:17:19.164Z,98.37
2023-03-25T05:18:23.444Z,98.36
2023-03-25T05:19:27.743Z,98.38
2023-03-25T05:20:31.923Z,98.36
2023-03-25T05:21:36.271Z,98.38
2023-03-25T05:22:43.410Z,98.38
2023-03-25T05:23:46.748Z,98.38
2023-03-25T05:24:50.930Z,98.46
2023-03-25T05:25:55.188Z,98.42
2023-03-25T05:26:59.442Z,98.43
2023-03-25T05:28:03.629Z,98.49
2023-03-25T05:29:07.948Z,98.43
2023-03-25T05:30:12.182Z,98.42
2023-03-25T05:31:16.428Z,98.41
2023-03-25T05:32:20.659Z,98.41
2023-03-25T05:33:24.904Z,98.42
2023-03-25T05:34:29.136Z,98.44
2023-03-25T05:35:33.332Z,98.51
2023-03-25T05:36:37.611Z,98.54
2023-03-25T05:37:41.840Z,98.56
2023-03-25T05:38:46.112Z,98.60
2023-03-25T05:39:50.350Z,98.67
2023-03-25T05:41:00.659Z,98.71
2023-03-25T05:42:03.509Z,98.74
2023-03-25T05:43:07.684Z,98.78
2023-03-25T05:44:11.957Z,98.84
2023-03-25T05:45:16.169Z,98.86
2023-03-25T05:46:20.478Z,98.88
2023-03-25T05:47:24.692Z,98.89
2023-03-25T05:48:28.949Z,98.88
2023-03-25T05:49:33.211Z,98.86
2023-03-25T05:50:37.452Z,98.90
2023-03-25T05:51:41.692Z,98.89
2023-03-25T05:52:45.942Z,98.87
2023-03-25T05:53:50.182Z,98.84
2023-03-25T05:54:57.397Z,98.84
2023-03-25T05:56:00.868Z,98.83
2023-03-25T05:57:05.013Z,98.87
2023-03-25T05:58:09.264Z,98.85
2023-03-25T05:59:13.472Z,98.87
2023-03-25T06:00:17.731Z,98.89
2023-03-25T06:01:32.751Z,98.88
2023-03-25T06:02:26.429Z,98.87
2023-03-25T06:03:30.716Z,98.85
2023-03-25T06:04:34.829Z,98.92
2023-03-25T06:05:39.156Z,98.92
2023-03-25T06:06:43.337Z,98.91
2023-03-25T06:07:47.679Z,98.90
2023-03-25T06:08:51.796Z,98.90
2023-03-25T06:09:56.040Z,98.92
2023-03-25T06:11:00.367Z,98.94
2023-03-25T06:12:04.597Z,98.96
2023-03-25T06:13:09.005Z,98.98
2023-03-25T06:14:13.247Z,99.00
2023-03-25T06:15:17.445Z,99.01
2023-03-25T06:16:21.783Z,98.99
2023-03-25T06:17:26.061Z,98.95
2023-03-25T06:18:30.255Z,98.91
2023-03-25T06:19:34.504Z,98.88
2023-03-25T06:20:38.810Z,98.82
2023-03-25T06:21:43.012Z,98.78
2023-03-25T06:22:47.250Z,98.74
2023-03-25T06:23:51.544Z,98.72
2023-03-25T06:24:55.849Z,98.69
2023-03-25T06:26:00.131Z,98.65
2023-03-25T06:27:04.379Z,98.61
2023-03-25T06:28:08.624Z,98.61
2023-03-25T06:29:12.837Z,98.62
2023-03-25T06:30:17.130Z,98.60
2023-03-25T06:31:21.354Z,98.59
2023-03-25T06:32:25.703Z,98.59
2023-03-25T06:33:42.992Z,98.57
2023-03-25T06:34:34.111Z,98.60
2023-03-25T06:35:38.372Z,98.59
2023-03-25T06:36:42.580Z,98.59
2023-03-25T06:37:46.877Z,98.62
2023-03-25T06:38:51.162Z,98.61
2023-03-25T06:39:55.372Z,98.63
2023-03-25T06:40:59.602Z,98.63
2023-03-25T06:42:03.901Z,98.65
2023-03-25T06:43:08.201Z,98.66
2023-03-25T06:44:12.397Z,98.67
2023-03-25T06:45:16.662Z,98.65
2023-03-25T06:46:21.041Z,98.65
2023-03-25T06:47:25.382Z,98.64
2023-03-25T06:48:29.517Z,98.61
2023-03-25T06:49:33.777Z,98.60
2023-03-25T06:50:37.978Z,98.60
2023-03-25T06:51:42.263Z,98.61
2023-03-25T06:52:46.522Z,98.65
2023-03-25T06:53:50.909Z,98.63
2023-03-25T06:54:55.147Z,98.66
2023-03-25T06:55:59.404Z,98.67
2023-03-25T06:57:03.792Z,98.68
2023-03-25T06:58:07.943Z,98.71
2023-03-25T06:59:12.170Z,98.73
2023-03-25T07:00:16.522Z,98.71
2023-03-25T07:01:20.794Z,98.71
2023-03-25T07:02:25.012Z,98.69
2023-03-25T07:03:29.356Z,98.64
2023-03-25T07:04:33.523Z,98.58
2023-03-25T07:05:37.836Z,98.53
2023-03-25T07:06:42.138Z,98.46
2023-03-25T07:07:46.356Z,98.40
2023-03-25T07:08:50.590Z,98.31
2023-03-25T07:09:54.820Z,98.26
2023-03-25T07:10:59.144Z,98.20
2023-03-25T07:12:03.313Z,98.18
2023-03-25T07:13:07.579Z,98.20
2023-03-25T07:14:11.830Z,98.23
2023-03-25T07:15:16.093Z,98.24
2023-03-25T07:16:20.384Z,98.25
2023-03-25T07:17:24.642Z,98.26
2023-03-25T07:18:28.945Z,98.27
2023-03-25T07:19:33.130Z,98.28
2023-03-25T07:20:37.362Z,98.30
2023-03-25T07:21:41.655Z,98.30
2023-03-25T07:22:45.896Z,98.26
2023-03-25T07:24:04.296Z,98.17
2023-03-25T07:25:07.472Z,98.08
2023-03-25T07:26:11.708Z,98.02
2023-03-25T07:27:16.067Z,97.94
2023-03-25T07:28:20.268Z,97.85
2023-03-25T07:29:24.503Z,97.71
2023-03-25T07:30:28.802Z,97.62
2023-03-25T07:31:33.044Z,97.52
2023-03-25T07:32:37.263Z,97.41
2023-03-25T07:33:41.535Z,97.31
2023-03-25T07:34:45.817Z,97.25
2023-03-25T07:35:50.421Z,97.18
2023-03-25T07:36:54.445Z,97.21
2023-03-25T07:37:58.696Z,97.23
2023-03-25T07:39:02.989Z,97.23
2023-03-25T07:40:07.327Z,97.21
2023-03-25T07:41:11.646Z,97.17
2023-03-25T07:42:15.881Z,97.08
2023-03-25T07:43:20.125Z,97.04
2023-03-25T07:44:24.411Z,96.97
2023-03-25T07:45:28.711Z,96.88
2023-03-25T07:46:33.101Z,96.81
2023-03-25T07:47:37.160Z,96.71
2023-03-25T07:48:41.566Z,96.63
2023-03-25T07:49:45.802Z,96.56
2023-03-25T07:50:50.156Z,96.48
2023-03-25T07:51:54.369Z,96.47
2023-03-25T07:52:58.613Z,96.46
2023-03-25T07:54:05.441Z,96.36
2023-03-25T07:55:07.197Z,96.28
2023-03-25T07:56:11.556Z,96.25
2023-03-25T07:57:15.785Z,96.27
2023-03-25T07:58:20.016Z,96.30
2023-03-25T07:59:24.381Z,96.31
2023-03-25T08:00:28.744Z,96.35
2023-03-25T08:01:32.941Z,96.37
2023-03-25T08:02:37.220Z,96.33
2023-03-25T08:03:41.535Z,96.31
2023-03-25T08:04:45.831Z,96.28
2023-03-25T08:05:50.412Z,96.25
2023-03-25T08:06:54.307Z,96.25
2023-03-25T08:07:58.595Z,96.22
2023-03-25T08:09:02.838Z,96.23
2023-03-25T08:10:07.095Z,96.21
2023-03-25T08:11:11.375Z,96.18
2023-03-25T08:12:15.601Z,96.12
2023-03-25T08:13:19.893Z,96.06
2023-03-25T08:14:24.143Z,96.02
2023-03-25T08:15:28.392Z,96.00
2023-03-25T08:16:32.707Z,95.98
2023-03-25T08:17:37.013Z,95.85
2023-03-25T08:18:41.177Z,95.83
2023-03-25T08:19:45.412Z,95.73
2023-03-25T08:20:49.830Z,95.66
2023-03-25T08:21:53.963Z,95.61
2023-03-25T08:22:58.524Z,95.64
2023-03-25T08:24:02.553Z,95.63
2023-03-25T08:25:06.857Z,95.62
2023-03-25T08:26:25.168Z,95.58
2023-03-25T08:27:28.239Z,95.50
2023-03-25T08:28:32.582Z,95.53
2023-03-25T08:29:36.725Z,95.53
2023-03-25T08:30:41.069Z,95.53
2023-03-25T08:31:45.277Z,95.46
2023-03-25T08:32:49.636Z,95.42
2023-03-25T08:33:53.847Z,95.40
2023-03-25T08:34:58.133Z,95.43
2023-03-25T08:36:02.553Z,95.40
2023-03-25T08:37:06.703Z,95.32
2023-03-25T08:38:11.089Z,95.18
2023-03-25T08:39:15.325Z,95.06
2023-03-25T08:40:19.571Z,95.05
2023-03-25T08:41:23.858Z,95.01
2023-03-25T08:42:28.098Z,94.99
2023-03-25T08:43:32.460Z,94.99
2023-03-25T08:44:36.672Z,94.95
2023-03-25T08:45:40.962Z,94.83
2023-03-25T08:46:45.231Z,94.62
2023-03-25T08:47:49.471Z,94.51
2023-03-25T08:48:53.775Z,94.48
2023-03-25T08:49:58.098Z,94.27
2023-03-25T08:51:02.366Z,94.17
2023-03-25T08:52:06.533Z,94.01
2023-03-25T08:53:10.892Z,93.91
2023-03-25T08:54:15.075Z,93.80
2023-03-25T08:55:19.366Z,93.46
2023-03-25T08:56:23.637Z,93.40
2023-03-25T08:57:27.874Z,93.38
2023-03-25T08:58:32.228Z,93.23
2023-03-25T08:59:36.441Z,93.10
2023-03-25T09:00:40.704Z,92.83
2023-03-25T09:01:45.048Z,92.74
2023-03-25T09:02:49.247Z,92.73
2023-03-25T09:03:53.467Z,92.64
2023-03-25T09:04:57.855Z,92.73
2023-03-25T09:06:02.039Z,92.76
2023-03-25T09:07:10.878Z,92.78
2023-03-25T09:08:10.687Z,92.42
2023-03-25T09:09:14.948Z,92.29
2023-03-25T09:10:19.248Z,92.23
2023-03-25T09:11:34.184Z,92.25
2023-03-25T09:12:27.774Z,92.23
2023-03-25T09:13:32.068Z,92.19
2023-03-25T09:14:36.316Z,91.93
2023-03-25T09:15:40.584Z,91.74
2023-03-25T09:16:44.868Z,91.62
2023-03-25T09:17:49.123Z,91.48
2023-03-25T09:18:53.392Z,91.53
2023-03-25T09:19:58.898Z,91.42
2023-03-25T09:21:01.926Z,91.38
2023-03-25T09:22:06.194Z,91.30
2023-03-25T09:23:10.535Z,91.17
2023-03-25T09:24:14.890Z,91.09
2023-03-25T09:25:19.139Z,91.14
2023-03-25T09:26:23.458Z,91.19
2023-03-25T09:27:27.822Z,91.08
2023-03-25T09:28:31.997Z,91.09
2023-03-25T09:29:36.289Z,91.14
2023-03-25T09:30:40.536Z,91.18
2023-03-25T09:31:44.888Z,91.13
2023-03-25T09:32:49.100Z,91.06
2023-03-25T09:33:53.353Z,91.18
2023-03-25T09:34:57.638Z,91.02
2023-03-25T09:36:01.963Z,90.89
2023-03-25T09:37:06.212Z,90.79
2023-03-25T09:38:10.479Z,90.68
2023-03-25T09:39:14.715Z,90.22
2023-03-25T09:40:19.032Z,90.02
2023-03-25T09:41:23.290Z,90.08
2023-03-25T09:42:27.492Z,89.98
2023-03-25T09:43:31.756Z,89.87
2023-03-25T09:44:36.040Z,89.81
2023-03-25T09:45:40.317Z,89.66
2023-03-25T09:46:44.595Z,89.44
2023-03-25T09:47:48.933Z,89.41
2023-03-25T09:50:20.285Z,89.47
2023-03-25T09:51:24.477Z,89.53
2023-03-25T09:52:28.802Z,89.56
2023-03-25T09:53:33.041Z,89.60
2023-03-25T09:54:37.282Z,89.77
2023-03-25T09:55:41.665Z,89.75
2023-03-25T09:56:45.981Z,89.66
2023-03-25T09:57:50.158Z,89.45
2023-03-25T09:58:54.447Z,89.46
2023-03-25T09:59:58.681Z,89.48
2023-03-25T10:01:03.181Z,89.62
2023-03-25T10:02:07.310Z,89.77
2023-03-25T10:03:11.607Z,89.83
2023-03-25T10:04:15.846Z,89.99
2023-03-25T10:05:20.191Z,90.09
2023-03-25T10:06:24.532Z,90.25
2023-03-25T10:07:28.752Z,90.27
2023-03-25T10:08:33.007Z,90.31
2023-03-25T10:09:37.296Z,90.42
2023-03-25T10:10:41.712Z,90.54
2023-03-25T10:11:45.898Z,90.46
2023-03-25T10:12:50.293Z,90.46
2023-03-25T10:13:54.540Z,90.30
2023-03-25T10:14:58.839Z,90.09
2023-03-25T10:16:03.176Z,89.75
2023-03-25T10:17:07.365Z,89.31
2023-03-25T10:18:11.660Z,88.81
2023-03-25T10:19:15.897Z,88.54
2023-03-25T10:20:20.213Z,88.17
2023-03-25T10:21:24.478Z,88.00
2023-03-25T10:22:28.774Z,87.67
2023-03-25T10:23:33.041Z,87.70
2023-03-25T10:24:37.388Z,87.42
2023-03-25T10:25:41.889Z,87.10
2023-03-25T10:26:46.198Z,86.71
2023-03-25T10:27:50.573Z,86.07
2023-03-25T10:28:54.908Z,85.91
2023-03-25T10:29:59.126Z,85.67
2023-03-25T10:31:03.433Z,85.54
2023-03-25T10:32:07.728Z,85.60
2023-03-25T10:33:12.083Z,85.99
2023-03-25T10:34:16.360Z,85.91
2023-03-25T10:35:20.741Z,86.04
2023-03-25T10:36:24.989Z,86.25
2023-03-25T10:37:29.369Z,86.32
2023-03-25T10:38:33.590Z,86.60
2023-03-25T10:39:40.893Z,86.76
2023-03-25T10:40:44.273Z,86.67
2023-03-25T10:41:48.570Z,86.36
2023-03-25T10:42:52.917Z,86.13
2023-03-25T10:43:57.171Z,85.88
2023-03-25T10:45:01.430Z,85.57
2023-03-25T10:46:05.888Z,85.28
2023-03-25T10:47:10.109Z,85.33
2023-03-25T10:48:14.410Z,85.19
2023-03-25T10:49:18.664Z,85.05
2023-03-25T10:50:22.859Z,84.22
2023-03-25T10:51:27.270Z,83.52
2023-03-25T10:52:31.524Z,83.51
2023-03-25T10:53:35.817Z,83.11
2023-03-25T10:54:40.188Z,82.32
2023-03-25T10:55:44.426Z,82.31
2023-03-25T10:56:48.748Z,82.50
2023-03-25T10:57:53.022Z,82.86
2023-03-25T10:58:57.303Z,83.10
2023-03-25T11:00:01.763Z,83.50
2023-03-25T11:01:06.055Z,83.62
2023-03-25T11:02:10.269Z,83.21
2023-03-25T11:03:14.608Z,82.52
2023-03-25T11:04:18.926Z,81.89
2023-03-25T11:05:23.134Z,81.33
2023-03-25T11:06:27.346Z,81.28
2023-03-25T11:07:31.586Z,81.19
2023-03-25T11:08:36.029Z,81.49
2023-03-25T11:09:40.231Z,81.97
2023-03-25T11:10:44.515Z,82.19
2023-03-25T11:11:48.779Z,82.34
2023-03-25T11:12:53.088Z,82.23
2023-03-25T11:13:57.261Z,82.40
2023-03-25T11:15:01.712Z,82.60
2023-03-25T11:16:06.060Z,82.69
2023-03-25T11:17:10.836Z,82.92
2023-03-25T11:18:14.865Z,83.04
2023-03-25T11:19:25.060Z,83.03
2023-03-25T11:20:27.755Z,82.84
2023-03-25T11:21:32.100Z,83.08
2023-03-25T11:22:36.381Z,83.19
2023-03-25T11:23:40.635Z,83.37
2023-03-25T11:24:44.906Z,83.39
2023-03-25T11:25:49.416Z,83.56
2023-03-25T11:26:53.417Z,83.83
2023-03-25T11:27:57.692Z,84.06
2023-03-25T11:29:01.994Z,84.30
2023-03-25T11:30:06.318Z,84.35
2023-03-25T11:31:10.754Z,84.42
2023-03-25T11:32:14.931Z,84.27
2023-03-25T11:33:19.185Z,84.38
2023-03-25T11:34:23.668Z,84.34
2023-03-25T11:35:27.743Z,84.35
2023-03-25T11:36:32.139Z,84.43
2023-03-25T11:37:36.381Z,84.30
2023-03-25T11:38:40.746Z,84.04
2023-03-25T11:39:45.007Z,83.84
2023-03-25T11:40:49.286Z,83.74
2023-03-25T11:41:53.580Z,83.80
2023-03-25T11:42:57.847Z,83.91
2023-03-25T11:44:02.160Z,83.88
2023-03-25T11:45:06.444Z,83.66
2023-03-25T11:46:10.839Z,83.61
2023-03-25T11:47:15.064Z,83.38
2023-03-25T11:48:19.333Z,83.40
2023-03-25T11:49:23.677Z,83.39
2023-03-25T11:50:27.923Z,83.42
2023-03-25T11:51:32.200Z,83.43
2023-03-25T11:52:36.546Z,83.16
2023-03-25T11:53:40.809Z,82.82
2023-03-25T11:54:45.059Z,82.76
2023-03-25T11:55:49.549Z,83.03
2023-03-25T11:56:53.650Z,83.62
2023-03-25T11:57:58.908Z,84.48
2023-03-25T11:59:02.816Z,85.43
2023-03-25T12:00:07.040Z,86.39
2023-03-25T12:01:11.335Z,87.47
2023-03-25T12:02:15.562Z,88.67
2023-03-25T12:03:20.764Z,89.46
2023-03-25T12:04:24.024Z,90.01
2023-03-25T12:05:28.313Z,90.45
2023-03-25T12:06:32.575Z,90.92
2023-03-25T12:07:36.803Z,91.10
2023-03-25T12:08:41.027Z,91.46
2023-03-25T12:09:45.278Z,91.70
2023-03-25T12:10:49.536Z,91.92
2023-03-25T12:11:53.786Z,92.06
2023-03-25T12:12:58.003Z,92.23
2023-03-25T12:14:02.360Z,92.24
2023-03-25T12:15:06.539Z,92.38
2023-03-25T12:16:10.798Z,92.55
2023-03-25T12:17:15.038Z,92.75
2023-03-25T12:18:19.369Z,92.98
2023-03-25T12:19:23.691Z,92.93
2023-03-25T12:20:27.889Z,92.92
2023-03-25T12:21:32.120Z,92.93
2023-03-25T12:22:36.386Z,92.92
2023-03-25T12:23:40.613Z,93.05
2023-03-25T12:24:44.908Z,93.08
2023-03-25T12:25:49.349Z,93.10
2023-03-25T12:26:53.369Z,93.09
2023-03-25T12:28:03.794Z,93.05
2023-03-25T12:29:06.706Z,92.98
2023-03-25T12:30:11.054Z,93.16
2023-03-25T12:31:15.280Z,93.27
2023-03-25T12:32:19.460Z,93.31
2023-03-25T12:33:23.659Z,93.31
2023-03-25T12:34:27.852Z,93.30
2023-03-25T12:35:32.008Z,93.33
2023-03-25T12:36:36.306Z,93.16
2023-03-25T12:37:40.731Z,93.09
2023-03-25T12:38:44.878Z,92.95
2023-03-25T12:39:49.059Z,92.82
2023-03-25T12:40:53.665Z,92.71
2023-03-25T12:41:57.748Z,92.64
2023-03-25T12:43:01.941Z,92.57
2023-03-25T12:44:06.201Z,92.64
2023-03-25T12:45:10.460Z,92.81
2023-03-25T12:46:14.798Z,92.84
2023-03-25T12:47:19.024Z,92.95
2023-03-25T12:48:23.275Z,92.98
2023-03-25T12:49:27.593Z,92.93
2023-03-25T12:50:33.113Z,92.87
2023-03-25T12:51:36.032Z,92.87
2023-03-25T12:52:54.274Z,92.84
2023-03-25T12:53:57.531Z,92.99
2023-03-25T12:55:01.685Z,93.13
2023-03-25T12:56:05.921Z,93.11
2023-03-25T12:57:10.282Z,93.23
2023-03-25T12:58:14.418Z,93.29
2023-03-25T12:59:18.659Z,93.21
2023-03-25T13:00:22.914Z,93.34
2023-03-25T13:01:27.243Z,93.61
2023-03-25T13:02:31.499Z,93.86
2023-03-25T13:03:35.730Z,94.05
2023-03-25T13:04:40.085Z,94.04
2023-03-25T13:05:44.382Z,93.85
2023-03-25T13:06:48.706Z,93.67
2023-03-25T13:07:58.931Z,93.27
2023-03-25T13:09:01.822Z,92.98
2023-03-25T13:10:06.091Z,92.71
2023-03-25T13:11:10.399Z,92.31
2023-03-25T13:12:14.637Z,91.74
2023-03-25T13:13:18.953Z,91.10
2023-03-25T13:14:23.225Z,90.49
2023-03-25T13:15:27.979Z,90.00
2023-03-25T13:16:31.919Z,89.73
2023-03-25T13:17:36.115Z,89.34
2023-03-25T13:18:40.385Z,89.11
2023-03-25T13:19:44.665Z,88.97
2023-03-25T13:20:49.168Z,88.94
2023-03-25T13:21:53.223Z,88.76
2023-03-25T13:22:57.514Z,88.73
2023-03-25T13:24:01.814Z,88.67
2023-03-25T13:25:06.118Z,88.76
2023-03-25T13:26:10.353Z,89.06
2023-03-25T13:27:14.647Z,89.27
2023-03-25T13:28:18.900Z,89.52
2023-03-25T13:29:26.163Z,89.70
2023-03-25T13:30:32.150Z,89.80
2023-03-25T13:31:33.884Z,89.89
2023-03-25T13:32:44.138Z,89.93
2023-03-25T13:33:46.993Z,89.95
2023-03-25T13:34:51.213Z,89.98
2023-03-25T13:35:55.541Z,90.00
2023-03-25T13:36:59.860Z,90.03
2023-03-25T13:38:04.057Z,90.01
2023-03-25T13:39:22.403Z,89.95
2023-03-25T13:40:25.409Z,89.93
2023-03-25T13:41:29.636Z,89.95
2023-03-25T13:42:33.877Z,90.00
2023-03-25T13:43:38.110Z,90.09
2023-03-25T13:44:48.420Z,90.19
2023-03-25T13:45:51.329Z,90.21
2023-03-25T13:46:55.556Z,90.25
2023-03-25T13:47:59.831Z,90.28
2023-03-25T13:49:04.187Z,90.34
2023-03-25T13:50:08.386Z,90.43
2023-03-25T13:51:12.695Z,90.53